createdAt,value
2022-11-14T00:00:12.015Z,3.299
2022-11-14T00:01:11.965Z,2.900
2022-11-14T00:02:11.839Z,2.799
2022-11-14T00:03:11.329Z,2.900
2022-11-14T00:05:11.147Z,3
2022-11-14T00:06:11.550Z,3.099
2022-11-14T00:07:11.751Z,2.900
2022-11-14T00:10:11.843Z,2.799
2022-11-14T00:11:11.157Z,2.900
2022-11-14T00:12:11.645Z,2.700
2022-11-14T00:13:11.056Z,2.900
2022-11-14T00:14:11.530Z,2.700
2022-11-14T00:15:11.178Z,2.799
2022-11-14T00:18:11.505Z,2.700
2022-11-14T00:20:11.976Z,2.900
2022-11-14T00:21:11.348Z,2.599
2022-11-14T00:22:11.713Z,2.700
2022-11-14T00:23:11.089Z,2.799
2022-11-14T00:24:11.738Z,2.700
2022-11-14T00:26:11.112Z,2.599
2022-11-14T00:27:11.569Z,2.700
2022-11-14T00:28:11.073Z,2.5
2022-11-14T00:30:11.808Z,2.599
2022-11-14T00:31:11.499Z,2.700
2022-11-14T00:32:11.293Z,2.599
2022-11-14T00:33:14.759Z,2.700
2022-11-14T00:35:11.396Z,2.799
2022-11-14T00:37:10.874Z,2.700
2022-11-14T00:38:11.344Z,2.400
2022-11-14T00:39:11.418Z,2.599
2022-11-14T00:40:10.912Z,2.799
2022-11-14T00:41:11.104Z,2.599
2022-11-14T00:42:11.452Z,2.5
2022-11-14T00:43:11.009Z,2.700
2022-11-14T00:45:11.938Z,2.400
2022-11-14T00:46:11.085Z,2.5
2022-11-14T00:50:11.743Z,2.700
2022-11-14T00:51:11.349Z,2.5
2022-11-14T00:53:10.987Z,2.599
2022-11-14T00:54:11.032Z,2.700
2022-11-14T00:59:11.341Z,2.5
2022-11-14T01:00:12.373Z,2.599
2022-11-14T01:01:12.527Z,2.5
2022-11-14T01:02:11.028Z,2.799
2022-11-14T01:06:11.371Z,2.700
2022-11-14T01:08:11.288Z,2.299
2022-11-14T01:09:11.087Z,2.700
2022-11-14T01:10:11.839Z,2.799
2022-11-14T01:11:11.229Z,2.700
2022-11-14T01:14:11.758Z,2.599
2022-11-14T01:15:11.182Z,2.5
2022-11-14T01:17:10.872Z,2.400
2022-11-14T01:18:11.544Z,2.900
2022-11-14T01:19:10.772Z,2.700
2022-11-14T01:20:11.303Z,2.599
2022-11-14T01:21:10.996Z,2.5
2022-11-14T01:22:11.336Z,2.700
2022-11-14T01:23:11.667Z,2.5
2022-11-14T01:25:11.232Z,2.700
2022-11-14T01:27:11.535Z,2.599
2022-11-14T01:28:10.738Z,2.700
2022-11-14T01:29:10.988Z,2.599
2022-11-14T01:31:11.165Z,2.400
2022-11-14T01:32:11.665Z,2.700
2022-11-14T01:33:10.965Z,2.799
2022-11-14T01:35:11.422Z,2.700
2022-11-14T01:36:10.934Z,2.599
2022-11-14T01:38:11.652Z,2.5
2022-11-14T01:39:11.286Z,2.900
2022-11-14T01:40:11.942Z,2.799
2022-11-14T01:41:11.313Z,2.599
2022-11-14T01:42:10.765Z,2.5
2022-11-14T01:43:10.839Z,2.299
2022-11-14T01:44:11.189Z,2.599
2022-11-14T01:45:11.866Z,2.5
2022-11-14T01:48:10.996Z,2.599
2022-11-14T01:49:11.175Z,2.5
2022-11-14T01:50:11.777Z,2.599
2022-11-14T01:52:11.432Z,2.5
2022-11-14T01:53:11.108Z,2.799
2022-11-14T01:54:11.639Z,2.700
2022-11-14T01:55:11.265Z,2.599
2022-11-14T01:56:11.608Z,2.400
2022-11-14T01:57:11.333Z,2.5
2022-11-14T01:58:11.025Z,2.700
2022-11-14T01:59:11.155Z,2.5
2022-11-14T02:02:10.876Z,2.799
2022-11-14T02:03:11.315Z,2.700
2022-11-14T02:04:15.250Z,2.900
2022-11-14T02:05:11.647Z,2.700
2022-11-14T02:09:11.529Z,2.599
2022-11-14T02:10:11.425Z,2.5
2022-11-14T02:11:10.935Z,2.900
2022-11-14T02:12:11.031Z,2.700
2022-11-14T02:13:11.398Z,2.599
2022-11-14T02:14:11.519Z,2.700
2022-11-14T02:15:10.987Z,2.900
2022-11-14T02:16:11.503Z,2.799
2022-11-14T02:17:29.549Z,2.900
2022-11-14T02:18:11.107Z,2.799
2022-11-14T02:19:11.758Z,2.5
2022-11-14T02:20:11.396Z,2.599
2022-11-14T02:22:11.398Z,2.900
2022-11-14T02:23:11.738Z,2.799
2022-11-14T02:24:11.112Z,2.900
2022-11-14T02:25:11.637Z,2.799
2022-11-14T02:26:11.436Z,2.700
2022-11-14T02:27:10.997Z,2.599
2022-11-14T02:28:11.405Z,2.900
2022-11-14T02:29:11.074Z,2.700
2022-11-14T02:30:11.797Z,2.900
2022-11-14T02:31:11.660Z,2.799
2022-11-14T02:32:11.215Z,2.700
2022-11-14T02:34:11.418Z,2.799
2022-11-14T02:35:11.597Z,3
2022-11-14T02:36:10.945Z,2.599
2022-11-14T02:37:11.159Z,2.799
2022-11-14T02:38:11.735Z,3
2022-11-14T02:39:11.116Z,2.700
2022-11-14T02:40:11.445Z,2.799
2022-11-14T02:41:11.739Z,3
2022-11-14T02:42:11.265Z,2.900
2022-11-14T02:43:11.508Z,2.799
2022-11-14T02:46:11.660Z,2.700
2022-11-14T02:47:10.922Z,2.900
2022-11-14T02:48:11.649Z,2.700
2022-11-14T02:49:11.069Z,2.799
2022-11-14T02:50:11.726Z,2.700
2022-11-14T02:52:11.219Z,3
2022-11-14T02:53:11.419Z,2.900
2022-11-14T02:54:10.873Z,2.700
2022-11-14T02:55:11.155Z,2.599
2022-11-14T02:56:11.718Z,2.5
2022-11-14T02:57:10.859Z,2.700
2022-11-14T02:58:11.159Z,2.5
2022-11-14T02:59:11.656Z,3
2022-11-14T03:00:14.786Z,2.900
2022-11-14T03:01:20.664Z,2.700
2022-11-14T03:02:11.669Z,2.900
2022-11-14T03:03:11.268Z,2.599
2022-11-14T03:04:11.776Z,2.799
2022-11-14T03:05:11.421Z,3.099
2022-11-14T03:06:11.571Z,2.799
2022-11-14T03:07:11.094Z,2.700
2022-11-14T03:10:11.519Z,2.599
2022-11-14T03:11:11.917Z,2.799
2022-11-14T03:13:11.383Z,2.599
2022-11-14T03:14:11.410Z,2.900
2022-11-14T03:15:12.161Z,2.599
2022-11-14T03:16:11.837Z,2.700
2022-11-14T03:17:11.290Z,2.599
2022-11-14T03:19:11.430Z,2.5
2022-11-14T03:21:11.478Z,2.599
2022-11-14T03:22:11.192Z,2.799
2022-11-14T03:24:11.294Z,2.900
2022-11-14T03:25:11.734Z,2.700
2022-11-14T03:26:11.011Z,2.799
2022-11-14T03:27:11.355Z,2.700
2022-11-14T03:29:11.352Z,2.599
2022-11-14T03:30:11.858Z,2.5
2022-11-14T03:31:11.126Z,2.700
2022-11-14T03:32:11.427Z,2.900
2022-11-14T03:33:11.030Z,2.700
2022-11-14T03:34:11.484Z,2.599
2022-11-14T03:35:12.003Z,2.799
2022-11-14T03:36:11.262Z,2.599
2022-11-14T03:37:11.076Z,2.900
2022-11-14T03:38:11.770Z,2.799
2022-11-14T03:39:11.279Z,2.599
2022-11-14T03:40:11.536Z,2.799
2022-11-14T03:41:11.803Z,2.900
2022-11-14T03:42:11.236Z,2.799
2022-11-14T03:43:11.463Z,2.599
2022-11-14T03:46:11.178Z,2.900
2022-11-14T03:47:11.136Z,2.799
2022-11-14T03:50:11.177Z,2.599
2022-11-14T03:51:11.538Z,2.799
2022-11-14T03:53:11.497Z,2.599
2022-11-14T03:55:11.440Z,3
2022-11-14T03:56:11.104Z,2.900
2022-11-14T03:57:11.762Z,2.799
2022-11-14T03:58:10.911Z,2.900
2022-11-14T03:59:10.973Z,2.700
2022-11-14T04:00:12.179Z,2.900
2022-11-14T04:02:11.647Z,2.599
2022-11-14T04:04:11.501Z,2.900
2022-11-14T04:05:10.991Z,2.799
2022-11-14T04:08:11.491Z,2.900
2022-11-14T04:09:11.075Z,3
2022-11-14T04:10:11.708Z,2.900
2022-11-14T04:12:15.503Z,3.099
2022-11-14T04:13:11.826Z,2.799
2022-11-14T04:14:11.057Z,2.700
2022-11-14T04:15:11.296Z,3
2022-11-14T04:16:11.698Z,2.900
2022-11-14T04:17:11.172Z,3
2022-11-14T04:18:11.586Z,3.200
2022-11-14T04:19:11.389Z,3.099
2022-11-14T04:20:11.346Z,3.200
2022-11-14T04:21:11.855Z,3
2022-11-14T04:23:11.796Z,2.900
2022-11-14T04:24:11.413Z,2.700
2022-11-14T04:27:10.984Z,2.799
2022-11-14T04:28:11.257Z,2.700
2022-11-14T04:30:11.454Z,2.5
2022-11-14T04:31:11.011Z,2.599
2022-11-14T04:32:11.353Z,2.900
2022-11-14T04:33:11.961Z,3
2022-11-14T04:34:11.619Z,2.700
2022-11-14T04:35:11.262Z,2.5
2022-11-14T04:36:11.773Z,2.599
2022-11-14T04:37:11.120Z,2.700
2022-11-14T04:38:11.623Z,3
2022-11-14T04:39:11.523Z,2.799
2022-11-14T04:40:11.035Z,3.200
2022-11-14T04:41:11.360Z,2.799
2022-11-14T04:45:11.514Z,2.700
2022-11-14T04:46:10.915Z,2.900
2022-11-14T04:47:11.473Z,2.700
2022-11-14T04:48:10.644Z,2.900
2022-11-14T04:50:11.788Z,2.700
2022-11-14T04:52:10.946Z,2.799
2022-11-14T04:53:11.390Z,2.599
2022-11-14T04:54:11.087Z,2.799
2022-11-14T04:55:11.506Z,3
2022-11-14T04:56:10.888Z,3.200
2022-11-14T04:57:11.502Z,3.599
2022-11-14T04:58:10.984Z,4.099
2022-11-14T04:59:14.719Z,4.5
2022-11-14T05:00:11.808Z,4.199
2022-11-14T05:02:11.687Z,3.799
2022-11-14T05:03:11.444Z,3.900
2022-11-14T05:04:11.081Z,3.799
2022-11-14T05:05:11.526Z,3.900
2022-11-14T05:06:11.332Z,3.400
2022-11-14T05:07:12.136Z,3.799
2022-11-14T05:08:11.557Z,3.700
2022-11-14T05:09:11.215Z,3.299
2022-11-14T05:10:11.982Z,3.799
2022-11-14T05:11:11.381Z,3.599
2022-11-14T05:13:11.113Z,3.400
2022-11-14T05:14:11.709Z,3.5
2022-11-14T05:15:11.374Z,3.400
2022-11-14T05:16:10.961Z,3.5
2022-11-14T05:17:11.396Z,3.400
2022-11-14T05:18:10.752Z,3.5
2022-11-14T05:19:11.113Z,3.400
2022-11-14T05:22:11.436Z,3.799
2022-11-14T05:23:10.836Z,3.400
2022-11-14T05:24:11.018Z,3.700
2022-11-14T05:25:11.711Z,3.799
2022-11-14T05:26:11.323Z,3.5
2022-11-14T05:28:16.265Z,3.400
2022-11-14T05:29:11.552Z,3.599
2022-11-14T05:31:10.859Z,3.700
2022-11-14T05:33:11.570Z,4
2022-11-14T05:34:11.068Z,3.700
2022-11-14T05:35:11.834Z,3.5
2022-11-14T05:36:11.154Z,3.599
2022-11-14T05:37:11.573Z,3.200
2022-11-14T05:38:11.048Z,3.099
2022-11-14T05:39:11.455Z,3.599
2022-11-14T05:40:11.453Z,3.700
2022-11-14T05:43:11.256Z,3.5
2022-11-14T05:44:11.569Z,4.300
2022-11-14T05:45:11.120Z,3.900
2022-11-14T05:46:11.786Z,4.699
2022-11-14T05:47:11.163Z,5
2022-11-14T05:48:11.803Z,4.800
2022-11-14T05:49:11.533Z,6.099
2022-11-14T05:50:11.320Z,5.599
2022-11-14T05:51:12.607Z,5.900
2022-11-14T05:52:11.272Z,6.099
2022-11-14T05:53:12.110Z,5.699
2022-11-14T05:54:11.863Z,5.400
2022-11-14T05:55:11.422Z,5.599
2022-11-14T05:56:11.571Z,5
2022-11-14T05:57:11.390Z,4.699
2022-11-14T05:58:11.044Z,5.599
2022-11-14T05:59:11.145Z,5.300
2022-11-14T06:01:11.410Z,5.199
2022-11-14T06:02:11.096Z,5
2022-11-14T06:03:10.949Z,5.400
2022-11-14T06:04:11.467Z,5
2022-11-14T06:05:11.203Z,4.599
2022-11-14T06:06:11.370Z,4.300
2022-11-14T06:08:11.508Z,4.699
2022-11-14T06:09:11.053Z,4.300
2022-11-14T06:12:30.428Z,4.099
2022-11-14T06:13:11.423Z,3.900
2022-11-14T06:14:11.393Z,4.699
2022-11-14T06:15:11.572Z,4.199
2022-11-14T06:17:11.482Z,4.699
2022-11-14T06:18:11.065Z,4.300
2022-11-14T06:19:11.504Z,4.800
2022-11-14T06:20:11.344Z,6.199
2022-11-14T06:21:11.116Z,6
2022-11-14T06:22:11.585Z,5.800
2022-11-14T06:23:11.293Z,5.400
2022-11-14T06:25:11.519Z,6.300
2022-11-14T06:27:11.352Z,7.400
2022-11-14T06:28:12.083Z,7.699
2022-11-14T06:29:11.102Z,7.400
2022-11-14T06:30:12.050Z,7.900
2022-11-14T06:31:11.417Z,7.699
2022-11-14T06:33:11.750Z,7.400
2022-11-14T06:34:11.049Z,7.099
2022-11-14T06:35:11.802Z,6.900
2022-11-14T06:36:11.494Z,6.5
2022-11-14T06:37:11.135Z,6.900
2022-11-14T06:38:11.733Z,6.800
2022-11-14T06:39:11.209Z,6.5
2022-11-14T06:40:10.862Z,6.199
2022-11-14T06:42:11.293Z,6.099
2022-11-14T06:43:11.458Z,6
2022-11-14T06:45:12.312Z,6.300
2022-11-14T06:46:11.417Z,5.900
2022-11-14T06:47:11.258Z,5.800
2022-11-14T06:48:11.109Z,6
2022-11-14T06:49:11.562Z,5.900
2022-11-14T06:50:11.074Z,6
2022-11-14T06:51:11.372Z,6.599
2022-11-14T06:52:10.896Z,6.300
2022-11-14T06:53:11.339Z,6.400
2022-11-14T06:54:14.791Z,6.099
2022-11-14T06:55:13.855Z,6.699
2022-11-14T06:56:13.011Z,6.400
2022-11-14T06:57:11.457Z,6.800
2022-11-14T06:58:14.525Z,6.5
2022-11-14T06:59:12.436Z,7.5
2022-11-14T07:00:13.062Z,7.800
2022-11-14T07:01:12.345Z,8
2022-11-14T07:02:10.922Z,8.300
2022-11-14T07:03:12.022Z,8.399
2022-11-14T07:04:13.838Z,9
2022-11-14T07:05:12.945Z,9.300
2022-11-14T07:07:14.375Z,8.899
2022-11-14T07:08:10.816Z,10.19
2022-11-14T07:09:10.653Z,11.60
2022-11-14T07:10:11.194Z,10.39
2022-11-14T07:12:11.633Z,10.10
2022-11-14T07:13:11.853Z,10
2022-11-14T07:14:11.439Z,9.100
2022-11-14T07:16:11.501Z,9.699
2022-11-14T07:17:11.611Z,9.199
2022-11-14T07:18:10.935Z,9.300
2022-11-14T07:19:11.532Z,9.600
2022-11-14T07:21:10.749Z,9.199
2022-11-14T07:22:11.358Z,10
2022-11-14T07:23:12.066Z,9.300
2022-11-14T07:24:11.101Z,9.100
2022-11-14T07:25:11.566Z,9.5
2022-11-14T07:26:11.178Z,9.399
2022-11-14T07:27:12.072Z,9.199
2022-11-14T07:28:11.814Z,8.699
2022-11-14T07:29:11.799Z,8.600
2022-11-14T07:30:11.995Z,9.199
2022-11-14T07:31:11.626Z,10
2022-11-14T07:32:11.388Z,8.899
2022-11-14T07:33:12.246Z,9.199
2022-11-14T07:34:11.727Z,9.899
2022-11-14T07:35:11.432Z,10.5
2022-11-14T07:36:11.082Z,9.699
2022-11-14T07:37:11.685Z,9.600
2022-11-14T07:38:11.104Z,9.899
2022-11-14T07:39:11.705Z,9.800
2022-11-14T07:40:11.520Z,9.899
2022-11-14T07:41:12.225Z,10
2022-11-14T07:42:11.556Z,9.899
2022-11-14T07:43:11.227Z,10.39
2022-11-14T07:44:11.815Z,9.899
2022-11-14T07:45:11.165Z,10.69
2022-11-14T07:46:11.674Z,12.30
2022-11-14T07:48:11.595Z,11.30
2022-11-14T07:49:10.800Z,11.19
2022-11-14T07:50:12.482Z,10.60
2022-11-14T07:51:11.984Z,10.5
2022-11-14T07:52:11.250Z,10.39
2022-11-14T07:53:11.405Z,11.80
2022-11-14T07:54:11.601Z,10.80
2022-11-14T07:55:11.024Z,11.39
2022-11-14T07:56:11.246Z,11.30
2022-11-14T07:57:11.561Z,12.10
2022-11-14T07:59:11.704Z,11.5
2022-11-14T08:00:12.301Z,10.80
2022-11-14T08:01:11.057Z,11.19
2022-11-14T08:02:11.562Z,11.69
2022-11-14T08:03:11.798Z,11.89
2022-11-14T08:04:10.811Z,11.30
2022-11-14T08:05:10.927Z,13
2022-11-14T08:06:10.840Z,12.69
2022-11-14T08:07:10.861Z,13.89
2022-11-14T08:08:11.100Z,13.19
2022-11-14T08:09:13.298Z,13.60
2022-11-14T08:10:11.103Z,13.39
2022-11-14T08:11:11.164Z,13.89
2022-11-14T08:12:10.811Z,13.19
2022-11-14T08:13:31.025Z,14.39
2022-11-14T08:14:11.490Z,13.19
2022-11-14T08:15:11.615Z,14.5
2022-11-14T08:17:11.323Z,14.89
2022-11-14T08:18:11.332Z,14.69
2022-11-14T08:19:11.399Z,14.39
2022-11-14T08:20:11.462Z,15.19
2022-11-14T08:21:11.381Z,14.80
2022-11-14T08:22:10.963Z,15.10
2022-11-14T08:23:10.816Z,15
2022-11-14T08:24:10.969Z,14.30
2022-11-14T08:25:25.153Z,14.5
2022-11-14T08:26:10.722Z,14.30
2022-11-14T08:27:10.988Z,13.39
2022-11-14T08:28:11.051Z,13
2022-11-14T08:29:11.160Z,13.5
2022-11-14T08:30:10.980Z,14
2022-11-14T08:31:11.003Z,13.69
2022-11-14T08:32:10.959Z,13.30
2022-11-14T08:33:11.017Z,13.60
2022-11-14T08:34:11.171Z,13.10
2022-11-14T08:35:11.447Z,12.39
2022-11-14T08:36:11.562Z,11.89
2022-11-14T08:37:11.216Z,12.10
2022-11-14T08:38:10.978Z,12.5
2022-11-14T08:39:11.134Z,11.89
2022-11-14T08:40:11.370Z,11.10
2022-11-14T08:41:11.052Z,11.5
2022-11-14T08:42:10.782Z,11.30
2022-11-14T08:43:10.704Z,11.5
2022-11-14T08:44:10.906Z,10.39
2022-11-14T08:45:11.019Z,9.800
2022-11-14T08:46:11.094Z,10.30
2022-11-14T08:47:13.481Z,10.69
2022-11-14T08:48:11.147Z,10.30
2022-11-14T08:49:11.261Z,10.19
2022-11-14T08:50:10.900Z,9.899
2022-11-14T08:51:10.779Z,10.5
2022-11-14T08:52:16.331Z,10.39
2022-11-14T08:53:11.428Z,10
2022-11-14T08:54:11.579Z,9.800
2022-11-14T08:55:11.436Z,10
2022-11-14T08:56:10.727Z,9.199
2022-11-14T08:57:10.699Z,8.600
2022-11-14T08:58:11.294Z,9.199
2022-11-14T08:59:13.202Z,9.399
2022-11-14T09:00:11.803Z,8.100
2022-11-14T09:01:10.694Z,8.899
2022-11-14T09:02:11.350Z,9.300
2022-11-14T09:03:11.572Z,9.199
2022-11-14T09:04:11.493Z,9.399
2022-11-14T09:05:11.223Z,8.600
2022-11-14T09:08:11.147Z,8.5
2022-11-14T09:09:11.093Z,8.100
2022-11-14T09:10:10.907Z,7.900
2022-11-14T09:11:12.416Z,8.399
2022-11-14T09:12:10.834Z,7.800
2022-11-14T09:13:10.787Z,8.199
2022-11-14T09:14:11.016Z,7.5
2022-11-14T09:16:11.154Z,7.800
2022-11-14T09:17:11.410Z,7.199
2022-11-14T09:18:11.396Z,7.800
2022-11-14T09:20:11.036Z,7.5
2022-11-14T09:21:10.976Z,7.800
2022-11-14T09:22:10.987Z,7.5
2022-11-14T09:23:10.943Z,7.699
2022-11-14T09:24:10.846Z,7.900
2022-11-14T09:25:11.456Z,7.5
2022-11-14T09:26:11.581Z,8.100
2022-11-14T09:27:10.745Z,8.199
2022-11-14T09:28:10.938Z,8.699
2022-11-14T09:29:11.041Z,8.899
2022-11-14T09:30:11.346Z,8.800
2022-11-14T09:31:11.095Z,9.300
2022-11-14T09:32:11.293Z,8.100
2022-11-14T09:33:11.938Z,8.600
2022-11-14T09:34:11.289Z,8.699
2022-11-14T09:35:11.281Z,8.5
2022-11-14T09:36:11.164Z,8.100
2022-11-14T09:37:11.310Z,7.800
2022-11-14T09:39:11.443Z,7.900
2022-11-14T09:40:11.688Z,8
2022-11-14T09:41:11.224Z,7.400
2022-11-14T09:42:15.787Z,7.900
2022-11-14T09:43:10.636Z,8
2022-11-14T09:44:10.795Z,8.199
2022-11-14T09:45:11.625Z,7.599
2022-11-14T09:46:11.417Z,8.199
2022-11-14T09:47:11.072Z,7.400
2022-11-14T09:48:11.679Z,7.900
2022-11-14T09:49:10.725Z,7.5
2022-11-14T09:50:10.755Z,7.800
2022-11-14T09:51:10.524Z,7.400
2022-11-14T09:52:10.465Z,7.800
2022-11-14T09:53:11.489Z,7.599
2022-11-14T09:56:10.987Z,7.099
2022-11-14T09:57:11.199Z,6.5
2022-11-14T09:58:11.291Z,6.699
2022-11-14T09:59:11.193Z,6.900
2022-11-14T10:00:11.931Z,6.400
2022-11-14T10:01:11.132Z,6.599
2022-11-14T10:02:11.308Z,6.400
2022-11-14T10:03:10.888Z,6.5
2022-11-14T10:04:10.909Z,6.300
2022-11-14T10:05:11.139Z,6.099
2022-11-14T10:07:11.574Z,5.699
2022-11-14T10:08:11.010Z,5.800
2022-11-14T10:09:11.305Z,5.900
2022-11-14T10:10:11.564Z,6.099
2022-11-14T10:11:10.907Z,5.800
2022-11-14T10:12:10.950Z,5.699
2022-11-14T10:13:11.216Z,5.800
2022-11-14T10:14:11.671Z,5.300
2022-11-14T10:15:10.825Z,5.400
2022-11-14T10:16:11.096Z,5.599
2022-11-14T10:17:11.441Z,5.099
2022-11-14T10:19:11.192Z,5
2022-11-14T10:20:11.768Z,4.900
2022-11-14T10:21:10.751Z,5
2022-11-14T10:22:10.472Z,4.900
2022-11-14T10:23:11.125Z,4.300
2022-11-14T10:24:11.369Z,4.900
2022-11-14T10:25:11.719Z,4.5
2022-11-14T10:26:10.880Z,4.699
2022-11-14T10:27:11.250Z,4.5
2022-11-14T10:28:11.307Z,4.400
2022-11-14T10:29:10.999Z,4.5
2022-11-14T10:30:16.659Z,4.400
2022-11-14T10:33:11.181Z,4.699
2022-11-14T10:35:10.744Z,4.199
2022-11-14T10:37:10.846Z,3.700
2022-11-14T10:38:11.722Z,4.300
2022-11-14T10:39:10.987Z,4.099
2022-11-14T10:40:25.261Z,4
2022-11-14T10:42:25.325Z,3.900
2022-11-14T10:43:11.100Z,4.699
2022-11-14T10:44:11.250Z,4.5
2022-11-14T10:45:11.829Z,4.199
2022-11-14T10:46:10.918Z,4.599
2022-11-14T10:47:11.048Z,5
2022-11-14T10:48:11.256Z,4.699
2022-11-14T10:49:11.520Z,4.800
2022-11-14T10:50:10.888Z,5
2022-11-14T10:51:11.231Z,4.5
2022-11-14T10:52:11.347Z,4.699
2022-11-14T10:53:11.495Z,4.800
2022-11-14T10:54:29.834Z,4.5
2022-11-14T10:55:10.661Z,4.900
2022-11-14T10:56:11.028Z,4.699
2022-11-14T10:58:11.550Z,4.5
2022-11-14T10:59:11.595Z,5
2022-11-14T11:00:11.724Z,5.199
2022-11-14T11:02:11.414Z,5.300
2022-11-14T11:03:10.925Z,6.099
2022-11-14T11:04:11.024Z,6.199
2022-11-14T11:06:10.706Z,6.699
2022-11-14T11:07:10.856Z,6.199
2022-11-14T11:09:11.155Z,6.099
2022-11-14T11:10:11.503Z,6.400
2022-11-14T11:12:34.099Z,6.199
2022-11-14T11:13:11.774Z,6
2022-11-14T11:15:11.562Z,6.099
2022-11-14T11:16:11.080Z,6
2022-11-14T11:17:11.375Z,5.699
2022-11-14T11:18:11.947Z,6.599
2022-11-14T11:19:11.768Z,6
2022-11-14T11:20:11.909Z,6.400
2022-11-14T11:21:12.188Z,6.300
2022-11-14T11:22:11.506Z,6.400
2022-11-14T11:23:11.461Z,6.099
2022-11-14T11:24:11.438Z,6.199
2022-11-14T11:25:12.190Z,5.900
2022-11-14T11:27:11.801Z,5
2022-11-14T11:28:11.810Z,4.800
2022-11-14T11:29:11.980Z,5
2022-11-14T11:30:11.985Z,4.800
2022-11-14T11:31:12.230Z,4.5
2022-11-14T11:32:11.720Z,4.400
2022-11-14T11:33:11.937Z,5.300
2022-11-14T11:34:11.745Z,5.400
2022-11-14T11:35:12.330Z,4.900
2022-11-14T11:36:11.354Z,4.699
2022-11-14T11:38:14.682Z,5
2022-11-14T11:39:10.828Z,6.199
2022-11-14T11:40:11.254Z,6
2022-11-14T11:41:15.618Z,6.5
2022-11-14T11:42:11.588Z,6.900
2022-11-14T11:43:39.244Z,7.599
2022-11-14T11:44:11.949Z,7.400
2022-11-14T11:45:12.055Z,7.800
2022-11-14T11:46:12.117Z,7.300
2022-11-14T11:47:11.438Z,8.100
2022-11-14T11:49:11.733Z,8
2022-11-14T11:50:11.777Z,7.599
2022-11-14T11:51:11.520Z,7.699
2022-11-14T11:52:11.300Z,7.300
2022-11-14T11:53:11.006Z,7.599
2022-11-14T11:54:11.603Z,8
2022-11-14T11:55:11.325Z,8.100
2022-11-14T11:56:11.238Z,7.599
2022-11-14T11:57:11.710Z,7
2022-11-14T11:58:11.182Z,7.800
2022-11-14T11:59:11.807Z,8
2022-11-14T12:00:12.302Z,8.199
2022-11-14T12:01:11.899Z,8.100
2022-11-14T12:02:13.058Z,7.699
2022-11-14T12:03:11.535Z,8.300
2022-11-14T12:04:11.885Z,7.900
2022-11-14T12:05:11.252Z,8
2022-11-14T12:06:11.439Z,8.100
2022-11-14T12:07:12.108Z,8.199
2022-11-14T12:08:14.970Z,8.5
2022-11-14T12:09:11.670Z,7.300
2022-11-14T12:10:11.860Z,8
2022-11-14T12:11:11.893Z,7.900
2022-11-14T12:12:11.751Z,7.099
2022-11-14T12:13:11.888Z,7.599
2022-11-14T12:14:11.784Z,7.400
2022-11-14T12:15:11.810Z,7.800
2022-11-14T12:16:13.222Z,7.5
2022-11-14T12:17:11.714Z,7.300
2022-11-14T12:19:11.615Z,6.599
2022-11-14T12:20:11.093Z,6.300
2022-11-14T12:21:11.630Z,5.800
2022-11-14T12:22:11.242Z,5.5
2022-11-14T12:24:11.340Z,5.699
2022-11-14T12:25:11.793Z,5.400
2022-11-14T12:26:11.409Z,5.599
2022-11-14T12:27:12.087Z,6.300
2022-11-14T12:28:11.844Z,6.5
2022-11-14T12:29:11.408Z,5.599
2022-11-14T12:30:10.979Z,6.300
2022-11-14T12:32:11.380Z,7
2022-11-14T12:33:10.844Z,6.699
2022-11-14T12:34:11.602Z,6.599
2022-11-14T12:36:11.664Z,6.5
2022-11-14T12:37:11.572Z,7.199
2022-11-14T12:38:11.095Z,7.5
2022-11-14T12:39:12.296Z,7.099
2022-11-14T12:40:11.355Z,6.5
2022-11-14T12:41:12.038Z,6.900
2022-11-14T12:42:12.361Z,7.099
2022-11-14T12:43:11.056Z,6.599
2022-11-14T12:44:12.063Z,6.800
2022-11-14T12:45:11.920Z,7
2022-11-14T12:46:11.066Z,6.699
2022-11-14T12:47:11.387Z,7.300
2022-11-14T12:48:11.128Z,6.800
2022-11-14T12:49:16.876Z,6.199
2022-11-14T12:50:11.181Z,6.5
2022-11-14T12:51:11.980Z,6.900
2022-11-14T12:52:11.451Z,6.5
2022-11-14T12:53:11.093Z,6.599
2022-11-14T12:55:11.207Z,6.5
2022-11-14T12:56:11.581Z,6.400
2022-11-14T12:57:10.754Z,6.800
2022-11-14T12:58:11.423Z,6.300
2022-11-14T12:59:10.931Z,7
2022-11-14T13:00:12.166Z,6.599
2022-11-14T13:02:11.430Z,6.5
2022-11-14T13:03:11.573Z,6.900
2022-11-14T13:04:11.399Z,6.599
2022-11-14T13:05:26.278Z,6.900
2022-11-14T13:06:11.525Z,6.599
2022-11-14T13:07:11.169Z,6.5
2022-11-14T13:08:11.754Z,7.099
2022-11-14T13:09:11.492Z,7.400
2022-11-14T13:10:11.304Z,7.300
2022-11-14T13:11:24.928Z,6.800
2022-11-14T13:12:11.043Z,7.199
2022-11-14T13:13:11.364Z,6.599
2022-11-14T13:14:11.610Z,6.800
2022-11-14T13:15:11.273Z,6.400
2022-11-14T13:16:10.623Z,6.599
2022-11-14T13:17:11.116Z,6.199
2022-11-14T13:18:11.730Z,7
2022-11-14T13:19:11.128Z,6.699
2022-11-14T13:20:12.558Z,6.800
2022-11-14T13:22:11.134Z,6.400
2022-11-14T13:23:11.222Z,6.099
2022-11-14T13:24:11.710Z,6.400
2022-11-14T13:25:11.237Z,6.5
2022-11-14T13:26:11.086Z,6.400
2022-11-14T13:27:11.533Z,6.099
2022-11-14T13:28:16.784Z,6.199
2022-11-14T13:29:11.129Z,6
2022-11-14T13:30:12.223Z,5.900
2022-11-14T13:31:11.653Z,5.599
2022-11-14T13:32:11.288Z,5.699
2022-11-14T13:33:11.815Z,6.199
2022-11-14T13:35:10.744Z,6.5
2022-11-14T13:36:11.071Z,6.099
2022-11-14T13:37:11.406Z,6.199
2022-11-14T13:38:11.688Z,6.300
2022-11-14T13:39:11.292Z,5.900
2022-11-14T13:40:11.296Z,5.800
2022-11-14T13:42:10.799Z,5.5
2022-11-14T13:43:11.083Z,5.400
2022-11-14T13:44:11.499Z,6.5
2022-11-14T13:45:10.780Z,5.5
2022-11-14T13:46:11.133Z,6
2022-11-14T13:47:11.603Z,5.800
2022-11-14T13:48:11.031Z,6
2022-11-14T13:49:11.312Z,5.599
2022-11-14T13:50:10.971Z,5.900
2022-11-14T13:51:36.720Z,6.099
2022-11-14T13:52:11.392Z,5.800
2022-11-14T13:53:11.139Z,6.599
2022-11-14T13:54:13.489Z,6.099
2022-11-14T13:55:11.583Z,5.800
2022-11-14T13:56:11.024Z,6
2022-11-14T13:57:11.587Z,6.199
2022-11-14T13:58:11.128Z,6
2022-11-14T14:00:14.255Z,5.900
2022-11-14T14:02:11.895Z,6.099
2022-11-14T14:03:11.547Z,6
2022-11-14T14:04:11.119Z,6.199
2022-11-14T14:05:11.551Z,6.400
2022-11-14T14:06:11.035Z,5.699
2022-11-14T14:07:11.617Z,6.099
2022-11-14T14:08:11.510Z,5.699
2022-11-14T14:09:11.331Z,5.599
2022-11-14T14:10:11.416Z,6
2022-11-14T14:11:10.775Z,5.699
2022-11-14T14:12:11.150Z,5.5
2022-11-14T14:13:11.562Z,5.900
2022-11-14T14:15:11.180Z,6
2022-11-14T14:17:11.134Z,6.199
2022-11-14T14:19:11.145Z,5.699
2022-11-14T14:20:11.620Z,5.400
2022-11-14T14:21:11.415Z,5.900
2022-11-14T14:22:11.183Z,5.400
2022-11-14T14:23:11.708Z,6.099
2022-11-14T14:24:11.455Z,5.400
2022-11-14T14:25:11.648Z,6.199
2022-11-14T14:26:11.170Z,5.599
2022-11-14T14:28:11.636Z,6
2022-11-14T14:29:11.761Z,7.300
2022-11-14T14:30:11.971Z,7.699
2022-11-14T14:31:11.820Z,8.600
2022-11-14T14:32:11.639Z,8.399
2022-11-14T14:33:11.614Z,8.600
2022-11-14T14:34:11.515Z,9.800
2022-11-14T14:35:11.290Z,10
2022-11-14T14:36:11.121Z,8.5
2022-11-14T14:37:11.765Z,9.300
2022-11-14T14:38:11.859Z,9.899
2022-11-14T14:39:11.848Z,9.199
2022-11-14T14:40:11.786Z,9.399
2022-11-14T14:41:11.656Z,9.899
2022-11-14T14:42:11.717Z,9.5
2022-11-14T14:43:11.162Z,10.19
2022-11-14T14:44:11.318Z,10.39
2022-11-14T14:45:11.819Z,10.5
2022-11-14T14:46:11.808Z,10.60
2022-11-14T14:47:11.416Z,10.69
2022-11-14T14:48:11.736Z,11.19
2022-11-14T14:49:11.761Z,10.80
2022-11-14T14:50:11.391Z,10.89
2022-11-14T14:51:11.184Z,11
2022-11-14T14:52:11.906Z,10.30
2022-11-14T14:53:11.739Z,10.60
2022-11-14T14:54:11.600Z,10.89
2022-11-14T14:55:11.761Z,11.19
2022-11-14T14:57:12.095Z,10.69
2022-11-14T14:58:11.307Z,11.39
2022-11-14T14:59:11.638Z,10.60
2022-11-14T15:00:11.553Z,11.69
2022-11-14T15:01:11.764Z,11.39
2022-11-14T15:02:11.678Z,10.69
2022-11-14T15:03:11.668Z,10.19
2022-11-14T15:04:11.965Z,9.899
2022-11-14T15:05:11.926Z,11.10
2022-11-14T15:06:11.809Z,10.89
2022-11-14T15:07:11.589Z,11
2022-11-14T15:08:11.596Z,9.699
2022-11-14T15:09:11.462Z,11.60
2022-11-14T15:10:16.603Z,10.89
2022-11-14T15:11:11.449Z,11.19
2022-11-14T15:12:11.219Z,10.80
2022-11-14T15:14:16.916Z,10.60
2022-11-14T15:15:11.831Z,11.39
2022-11-14T15:16:11.751Z,10.5
2022-11-14T15:17:12.081Z,11.10
2022-11-14T15:18:11.835Z,10.89
2022-11-14T15:19:11.680Z,10.39
2022-11-14T15:20:11.853Z,10.60
2022-11-14T15:21:11.712Z,10
2022-11-14T15:22:11.957Z,10.30
2022-11-14T15:23:11.721Z,11.80